AMV567 LGTS-LZIB
Flight info
| Callsign | AMV567 |
|---|---|
| Flight time | 1h 26m |
| Altitude | 38000 |
| Route | FSK UN128 RUGAS DCT RAXAD DCT OKLOP DCT TISAK DCT TONDO DCT JOZEP DCT PUCOG DCT BODZA DCT XOMBA |
| Aircraft | A20N/M-SDE2E3FGHIRWXY/LB1 |
Departure
| Time | 2026-05-07 17:37 |
|---|---|
| Airport | Thessaloniki Macedonia International Airport (LGTS) |
Arrival
| Time | 2026-05-07 19:03 |
|---|---|
| Airport | M. R. Štefánik Airport (LZIB) |
| Time | Latitude | Longitude | Altitude | Speed | Heading |
|---|---|---|---|---|---|
| 2026-05-07 16:50 | 40.52460 | 22.97393 | 28 ft | 0 kts | 45° |
| 2026-05-07 17:24 | 40.52458 | 22.97390 | 28 ft | 3 kts | 45° |
| 2026-05-07 17:25 | 40.52439 | 22.97366 | 28 ft | 4 kts | 45° |
| 2026-05-07 17:25 | 40.52423 | 22.97345 | 28 ft | 4 kts | 49° |
| 2026-05-07 17:25 | 40.52410 | 22.97315 | 28 ft | 4 kts | 77° |
| 2026-05-07 17:25 | 40.52408 | 22.97281 | 28 ft | 4 kts | 102° |
| 2026-05-07 17:26 | 40.52417 | 22.97249 | 28 ft | 4 kts | 131° |
| 2026-05-07 17:26 | 40.52430 | 22.97235 | 28 ft | 0 kts | 166° |
| 2026-05-07 17:30 | 40.52408 | 22.97237 | 28 ft | 7 kts | 186° |
| 2026-05-07 17:30 | 40.52355 | 22.97174 | 28 ft | 15 kts | 205° |
| 2026-05-07 17:30 | 40.52231 | 22.97199 | 28 ft | 21 kts | 166° |
| 2026-05-07 17:30 | 40.52080 | 22.97247 | 27 ft | 19 kts | 166° |
| 2026-05-07 17:31 | 40.52064 | 22.97251 | 27 ft | 0 kts | 166° |
| 2026-05-07 17:33 | 40.52050 | 22.97256 | 27 ft | 6 kts | 166° |
| 2026-05-07 17:33 | 40.51971 | 22.97281 | 30 ft | 17 kts | 166° |
| 2026-05-07 17:34 | 40.51833 | 22.97325 | 28 ft | 23 kts | 167° |
| 2026-05-07 17:34 | 40.51673 | 22.97374 | 28 ft | 25 kts | 165° |
| 2026-05-07 17:34 | 40.51540 | 22.97420 | 28 ft | 19 kts | 167° |
| 2026-05-07 17:34 | 40.51402 | 22.97462 | 28 ft | 21 kts | 166° |
| 2026-05-07 17:35 | 40.51253 | 22.97510 | 28 ft | 23 kts | 166° |
| 2026-05-07 17:35 | 40.51113 | 22.97555 | 28 ft | 19 kts | 166° |
| 2026-05-07 17:35 | 40.51000 | 22.97573 | 28 ft | 13 kts | 199° |
| 2026-05-07 17:35 | 40.50951 | 22.97470 | 27 ft | 14 kts | 255° |
| 2026-05-07 17:36 | 40.50981 | 22.97410 | 27 ft | 9 kts | 345° |
| 2026-05-07 17:36 | 40.50995 | 22.97405 | 28 ft | 0 kts | 346° |
| 2026-05-07 17:36 | 40.51030 | 22.97394 | 28 ft | 28 kts | 346° |
| 2026-05-07 17:37 | 40.51483 | 22.97253 | 30 ft | 103 kts | 346° |
| 2026-05-07 17:37 | 40.52372 | 22.96979 | 32 ft | 159 kts | 348° |
| 2026-05-07 17:37 | 40.53461 | 22.96640 | 645 ft | 160 kts | 347° |
| 2026-05-07 17:37 | 40.54502 | 22.96069 | 1335 ft | 164 kts | 328° |
| 2026-05-07 17:38 | 40.55433 | 22.95171 | 1970 ft | 172 kts | 321° |
| 2026-05-07 17:38 | 40.56447 | 22.94142 | 2361 ft | 194 kts | 321° |
| 2026-05-07 17:38 | 40.57568 | 22.93014 | 2889 ft | 211 kts | 322° |
| 2026-05-07 17:38 | 40.58771 | 22.91813 | 3531 ft | 223 kts | 321° |
| 2026-05-07 17:39 | 40.60038 | 22.90539 | 4118 ft | 238 kts | 321° |
| 2026-05-07 17:39 | 40.61403 | 22.89155 | 4676 ft | 258 kts | 321° |
| 2026-05-07 17:39 | 40.62884 | 22.87698 | 5377 ft | 270 kts | 323° |
| 2026-05-07 17:39 | 40.64465 | 22.86333 | 6342 ft | 273 kts | 326° |
| 2026-05-07 17:40 | 40.66124 | 22.85087 | 7280 ft | 275 kts | 330° |
| 2026-05-07 17:40 | 40.67882 | 22.84161 | 8240 ft | 279 kts | 343° |
| 2026-05-07 17:40 | 40.69819 | 22.83883 | 9225 ft | 283 kts | 359° |
| 2026-05-07 17:40 | 40.71801 | 22.84300 | 10035 ft | 295 kts | 13° |
| 2026-05-07 17:41 | 40.73805 | 22.85087 | 10619 ft | 310 kts | 13° |
| 2026-05-07 17:41 | 40.75930 | 22.85934 | 11047 ft | 328 kts | 14° |
| 2026-05-07 17:41 | 40.78169 | 22.86851 | 11514 ft | 344 kts | 14° |
| 2026-05-07 17:41 | 40.80492 | 22.87750 | 12194 ft | 350 kts | 13° |
| 2026-05-07 17:42 | 40.82853 | 22.88623 | 13049 ft | 353 kts | 13° |
| 2026-05-07 17:42 | 40.85225 | 22.89510 | 13881 ft | 356 kts | 13° |
| 2026-05-07 17:42 | 40.87617 | 22.90422 | 14593 ft | 360 kts | 13° |
| 2026-05-07 17:42 | 40.90038 | 22.91359 | 15281 ft | 364 kts | 13° |
| 2026-05-07 17:43 | 40.92478 | 22.92311 | 15992 ft | 367 kts | 13° |
| 2026-05-07 17:43 | 40.94944 | 22.93276 | 16682 ft | 372 kts | 13° |
| 2026-05-07 17:43 | 40.97442 | 22.94257 | 17368 ft | 375 kts | 13° |
| 2026-05-07 17:43 | 40.99953 | 22.95243 | 18062 ft | 379 kts | 13° |
| 2026-05-07 17:44 | 41.02499 | 22.96244 | 18687 ft | 383 kts | 13° |
| 2026-05-07 17:44 | 41.05063 | 22.97253 | 19279 ft | 386 kts | 13° |
| 2026-05-07 17:44 | 41.07679 | 22.98030 | 19849 ft | 384 kts | 1° |
| 2026-05-07 17:44 | 41.10326 | 22.97824 | 20390 ft | 381 kts | 344° |
| 2026-05-07 17:45 | 41.12795 | 22.96608 | 20963 ft | 378 kts | 328° |
| 2026-05-07 17:45 | 41.15022 | 22.94727 | 21502 ft | 380 kts | 324° |
| 2026-05-07 17:45 | 41.17215 | 22.92820 | 22040 ft | 384 kts | 324° |
| 2026-05-07 17:45 | 41.19462 | 22.90866 | 22605 ft | 388 kts | 324° |
| 2026-05-07 17:46 | 41.21731 | 22.88895 | 23172 ft | 390 kts | 324° |
| 2026-05-07 17:46 | 41.24013 | 22.86913 | 23693 ft | 394 kts | 324° |
| 2026-05-07 17:46 | 41.26318 | 22.84912 | 24177 ft | 396 kts | 324° |
| 2026-05-07 17:46 | 41.28626 | 22.82907 | 24683 ft | 398 kts | 324° |
| 2026-05-07 17:47 | 41.30954 | 22.80882 | 25160 ft | 400 kts | 324° |
| 2026-05-07 17:47 | 41.33364 | 22.79001 | 25616 ft | 404 kts | 330° |
| 2026-05-07 17:47 | 41.35945 | 22.77486 | 26077 ft | 408 kts | 335° |
| 2026-05-07 17:47 | 41.38577 | 22.76049 | 26518 ft | 410 kts | 334° |
| 2026-05-07 17:48 | 41.41215 | 22.74591 | 26976 ft | 411 kts | 334° |
| 2026-05-07 17:48 | 41.43873 | 22.73117 | 27370 ft | 414 kts | 334° |
| 2026-05-07 17:48 | 41.46535 | 22.71640 | 27561 ft | 416 kts | 334° |
| 2026-05-07 17:48 | 41.49256 | 22.70316 | 27563 ft | 418 kts | 341° |
| 2026-05-07 17:49 | 41.52125 | 22.69571 | 27571 ft | 422 kts | 348° |
| 2026-05-07 17:49 | 41.55034 | 22.69029 | 27566 ft | 422 kts | 348° |
| 2026-05-07 17:49 | 41.57844 | 22.68200 | 27567 ft | 417 kts | 337° |
| 2026-05-07 17:49 | 41.60457 | 22.66493 | 27570 ft | 412 kts | 323° |
| 2026-05-07 17:50 | 41.62752 | 22.64271 | 27575 ft | 412 kts | 321° |
| 2026-05-07 17:50 | 41.65140 | 22.62083 | 27573 ft | 412 kts | 325° |
| 2026-05-07 17:50 | 41.67656 | 22.60178 | 27709 ft | 418 kts | 330° |
| 2026-05-07 17:50 | 41.70245 | 22.58512 | 28201 ft | 419 kts | 332° |
| 2026-05-07 17:51 | 41.72918 | 22.56943 | 28661 ft | 420 kts | 334° |
| 2026-05-07 17:51 | 41.75624 | 22.55418 | 29028 ft | 423 kts | 334° |
| 2026-05-07 17:51 | 41.78349 | 22.53902 | 29394 ft | 425 kts | 334° |
| 2026-05-07 17:51 | 41.81086 | 22.52381 | 29789 ft | 426 kts | 334° |
| 2026-05-07 17:52 | 41.83833 | 22.50848 | 30141 ft | 429 kts | 334° |
| 2026-05-07 17:52 | 41.86592 | 22.49304 | 30464 ft | 430 kts | 334° |
| 2026-05-07 17:52 | 41.89358 | 22.47753 | 30786 ft | 432 kts | 334° |
| 2026-05-07 17:52 | 41.92136 | 22.46192 | 31079 ft | 434 kts | 334° |
| 2026-05-07 17:53 | 41.93987 | 22.45151 | 31295 ft | 435 kts | 334° |
| 2026-05-07 17:53 | 41.96772 | 22.43584 | 31695 ft | 434 kts | 333° |
| 2026-05-07 17:53 | 42.00490 | 22.41489 | 32273 ft | 432 kts | 333° |
| 2026-05-07 17:53 | 42.03260 | 22.39927 | 32665 ft | 431 kts | 333° |
| 2026-05-07 17:54 | 42.05089 | 22.38895 | 32897 ft | 430 kts | 333° |
| 2026-05-07 17:54 | 42.07849 | 22.37335 | 33251 ft | 429 kts | 333° |
| 2026-05-07 17:54 | 42.10603 | 22.35777 | 33618 ft | 429 kts | 333° |
| 2026-05-07 17:54 | 42.13346 | 22.34223 | 33976 ft | 428 kts | 333° |
| 2026-05-07 17:55 | 42.16086 | 22.32670 | 34290 ft | 427 kts | 333° |
| 2026-05-07 17:55 | 42.18825 | 22.31118 | 34584 ft | 426 kts | 333° |
| 2026-05-07 17:55 | 42.21558 | 22.29567 | 34856 ft | 426 kts | 332° |
| 2026-05-07 17:55 | 42.24288 | 22.28016 | 35145 ft | 425 kts | 332° |
| 2026-05-07 17:56 | 42.27019 | 22.26464 | 35394 ft | 425 kts | 332° |
| 2026-05-07 17:56 | 42.29747 | 22.24911 | 35613 ft | 425 kts | 332° |
| 2026-05-07 17:56 | 42.32516 | 22.23485 | 35873 ft | 427 kts | 335° |
| 2026-05-07 17:56 | 42.35329 | 22.22171 | 36123 ft | 427 kts | 335° |
| 2026-05-07 17:57 | 42.38135 | 22.20851 | 36335 ft | 428 kts | 335° |
| 2026-05-07 17:57 | 42.40952 | 22.19524 | 36568 ft | 427 kts | 335° |
| 2026-05-07 17:57 | 42.43755 | 22.18201 | 36789 ft | 427 kts | 335° |
| 2026-05-07 17:57 | 42.46563 | 22.16875 | 37017 ft | 427 kts | 335° |
| 2026-05-07 17:58 | 42.49366 | 22.15549 | 37236 ft | 427 kts | 334° |
| 2026-05-07 17:58 | 42.52169 | 22.14222 | 37436 ft | 427 kts | 334° |
| 2026-05-07 17:58 | 42.54970 | 22.12894 | 37628 ft | 426 kts | 334° |
| 2026-05-07 17:58 | 42.57737 | 22.11581 | 37799 ft | 426 kts | 334° |
| 2026-05-07 17:59 | 42.60537 | 22.10251 | 37964 ft | 427 kts | 334° |
| 2026-05-07 17:59 | 42.63339 | 22.08919 | 38108 ft | 427 kts | 334° |
| 2026-05-07 17:59 | 42.68948 | 22.06248 | 38090 ft | 426 kts | 334° |
| 2026-05-07 18:00 | 42.74544 | 22.03579 | 38092 ft | 427 kts | 334° |
| 2026-05-07 18:00 | 42.80118 | 22.00914 | 38090 ft | 427 kts | 334° |
| 2026-05-07 18:01 | 42.85762 | 21.98213 | 38087 ft | 428 kts | 334° |
| 2026-05-07 18:01 | 42.91389 | 21.95513 | 38074 ft | 428 kts | 334° |
| 2026-05-07 18:02 | 42.99785 | 21.91475 | 38069 ft | 429 kts | 334° |
| 2026-05-07 18:03 | 43.05415 | 21.88761 | 38057 ft | 429 kts | 334° |
| 2026-05-07 18:03 | 43.11039 | 21.86043 | 38056 ft | 429 kts | 334° |
| 2026-05-07 18:04 | 43.16676 | 21.83314 | 38049 ft | 430 kts | 334° |
| 2026-05-07 18:04 | 43.22317 | 21.80578 | 38050 ft | 430 kts | 334° |
| 2026-05-07 18:05 | 43.27966 | 21.77833 | 38048 ft | 430 kts | 334° |
| 2026-05-07 18:05 | 43.33575 | 21.75102 | 38050 ft | 431 kts | 334° |
| 2026-05-07 18:06 | 43.39226 | 21.72345 | 38046 ft | 431 kts | 334° |
| 2026-05-07 18:06 | 43.44873 | 21.69584 | 38043 ft | 431 kts | 334° |
| 2026-05-07 18:07 | 43.50535 | 21.66810 | 38042 ft | 431 kts | 334° |
| 2026-05-07 18:07 | 43.56192 | 21.64034 | 38038 ft | 432 kts | 334° |
| 2026-05-07 18:08 | 43.61861 | 21.61245 | 38038 ft | 433 kts | 334° |
| 2026-05-07 18:08 | 43.67539 | 21.58447 | 38035 ft | 433 kts | 334° |
| 2026-05-07 18:09 | 43.73227 | 21.55639 | 38038 ft | 434 kts | 335° |
| 2026-05-07 18:09 | 43.78921 | 21.52822 | 38039 ft | 435 kts | 335° |
| 2026-05-07 18:10 | 43.84591 | 21.50011 | 38045 ft | 436 kts | 335° |
| 2026-05-07 18:10 | 43.90308 | 21.47172 | 38041 ft | 436 kts | 335° |
| 2026-05-07 18:11 | 43.96029 | 21.44325 | 38043 ft | 437 kts | 335° |
| 2026-05-07 18:11 | 44.01766 | 21.41464 | 38043 ft | 438 kts | 335° |
| 2026-05-07 18:12 | 44.07502 | 21.38597 | 38042 ft | 439 kts | 335° |
| 2026-05-07 18:12 | 44.13240 | 21.35725 | 38034 ft | 437 kts | 335° |
| 2026-05-07 18:13 | 44.18839 | 21.32484 | 38039 ft | 434 kts | 327° |
| 2026-05-07 18:13 | 44.23990 | 21.28199 | 38033 ft | 431 kts | 323° |
| 2026-05-07 18:14 | 44.29060 | 21.23805 | 38026 ft | 432 kts | 323° |
| 2026-05-07 18:14 | 44.34164 | 21.19366 | 38028 ft | 432 kts | 323° |
| 2026-05-07 18:15 | 44.39257 | 21.14912 | 38029 ft | 432 kts | 323° |
| 2026-05-07 18:15 | 44.44355 | 21.10440 | 38027 ft | 432 kts | 323° |
| 2026-05-07 18:16 | 44.49444 | 21.05965 | 38014 ft | 432 kts | 323° |
| 2026-05-07 18:16 | 44.54539 | 21.01477 | 38020 ft | 432 kts | 323° |
| 2026-05-07 18:17 | 44.59604 | 20.97005 | 38013 ft | 433 kts | 323° |
| 2026-05-07 18:17 | 44.64704 | 20.92493 | 38018 ft | 433 kts | 323° |
| 2026-05-07 18:18 | 44.69802 | 20.87973 | 38020 ft | 434 kts | 323° |
| 2026-05-07 18:18 | 44.74910 | 20.83436 | 38019 ft | 434 kts | 323° |
| 2026-05-07 18:19 | 44.79874 | 20.78632 | 38018 ft | 431 kts | 317° |
| 2026-05-07 18:19 | 44.82430 | 20.75684 | 38019 ft | 431 kts | 316° |
| 2026-05-07 18:20 | 44.87084 | 20.70312 | 38024 ft | 432 kts | 316° |
| 2026-05-07 18:20 | 44.91789 | 20.65016 | 38033 ft | 433 kts | 317° |
| 2026-05-07 18:21 | 44.96526 | 20.59722 | 38023 ft | 434 kts | 317° |
| 2026-05-07 18:21 | 45.01268 | 20.54415 | 38024 ft | 435 kts | 317° |
| 2026-05-07 18:22 | 45.06008 | 20.49098 | 38027 ft | 435 kts | 317° |
| 2026-05-07 18:22 | 45.10755 | 20.43759 | 38024 ft | 436 kts | 317° |
| 2026-05-07 18:23 | 45.15504 | 20.38407 | 38027 ft | 436 kts | 317° |
| 2026-05-07 18:23 | 45.20256 | 20.33039 | 38029 ft | 437 kts | 317° |
| 2026-05-07 18:24 | 45.25004 | 20.27665 | 38016 ft | 436 kts | 317° |
| 2026-05-07 18:24 | 45.29703 | 20.22334 | 38014 ft | 435 kts | 316° |
| 2026-05-07 18:25 | 45.34432 | 20.16956 | 38010 ft | 435 kts | 316° |
| 2026-05-07 18:25 | 45.39162 | 20.11567 | 38010 ft | 435 kts | 316° |
| 2026-05-07 18:26 | 45.43886 | 20.06171 | 38010 ft | 435 kts | 316° |
| 2026-05-07 18:26 | 45.48603 | 20.00772 | 38006 ft | 435 kts | 316° |
| 2026-05-07 18:27 | 45.53321 | 19.95359 | 38004 ft | 435 kts | 316° |
| 2026-05-07 18:27 | 45.58036 | 19.89938 | 37992 ft | 435 kts | 316° |
| 2026-05-07 18:28 | 45.62711 | 19.84551 | 37997 ft | 435 kts | 316° |
| 2026-05-07 18:28 | 45.67420 | 19.79112 | 37998 ft | 435 kts | 316° |
| 2026-05-07 18:29 | 45.72124 | 19.73668 | 38004 ft | 434 kts | 316° |
| 2026-05-07 18:29 | 45.76829 | 19.68210 | 38002 ft | 434 kts | 316° |
| 2026-05-07 18:30 | 45.81522 | 19.62754 | 38005 ft | 435 kts | 316° |
| 2026-05-07 18:30 | 45.86184 | 19.57322 | 38004 ft | 435 kts | 315° |
| 2026-05-07 18:31 | 45.90874 | 19.51844 | 37996 ft | 435 kts | 315° |
| 2026-05-07 18:31 | 45.95568 | 19.46350 | 37998 ft | 435 kts | 315° |
| 2026-05-07 18:32 | 46.00267 | 19.40838 | 37997 ft | 435 kts | 315° |
| 2026-05-07 18:32 | 46.05327 | 19.35921 | 37994 ft | 443 kts | 326° |
| 2026-05-07 18:33 | 46.11006 | 19.32307 | 37995 ft | 450 kts | 335° |
| 2026-05-07 18:33 | 46.16884 | 19.29195 | 37991 ft | 450 kts | 334° |
| 2026-05-07 18:34 | 46.22766 | 19.26057 | 37990 ft | 451 kts | 334° |
| 2026-05-07 18:34 | 46.28617 | 19.22943 | 37993 ft | 451 kts | 334° |
| 2026-05-07 18:35 | 46.34521 | 19.19799 | 37994 ft | 452 kts | 334° |
| 2026-05-07 18:35 | 46.40435 | 19.16641 | 37994 ft | 453 kts | 334° |
| 2026-05-07 18:36 | 46.46349 | 19.13477 | 37996 ft | 454 kts | 334° |
| 2026-05-07 18:36 | 46.52279 | 19.10297 | 38001 ft | 454 kts | 334° |
| 2026-05-07 18:37 | 46.58213 | 19.07107 | 37999 ft | 455 kts | 334° |
| 2026-05-07 18:37 | 46.64159 | 19.03903 | 37999 ft | 456 kts | 334° |
| 2026-05-07 18:38 | 46.70077 | 19.00707 | 37999 ft | 456 kts | 334° |
| 2026-05-07 18:38 | 46.75956 | 18.97288 | 38005 ft | 450 kts | 326° |
| 2026-05-07 18:39 | 46.81227 | 18.92462 | 38002 ft | 447 kts | 321° |
| 2026-05-07 18:39 | 46.86465 | 18.87529 | 38009 ft | 448 kts | 322° |
| 2026-05-07 18:40 | 46.91779 | 18.82718 | 38008 ft | 449 kts | 323° |
| 2026-05-07 18:40 | 46.97114 | 18.77938 | 37794 ft | 450 kts | 323° |
| 2026-05-07 18:40 | 46.99785 | 18.75543 | 37299 ft | 451 kts | 322° |
| 2026-05-07 18:41 | 47.02466 | 18.73136 | 36678 ft | 450 kts | 322° |
| 2026-05-07 18:41 | 47.05125 | 18.70746 | 36070 ft | 448 kts | 322° |
| 2026-05-07 18:41 | 47.07777 | 18.68358 | 35483 ft | 446 kts | 322° |
| 2026-05-07 18:41 | 47.10390 | 18.66002 | 34912 ft | 445 kts | 322° |
| 2026-05-07 18:42 | 47.13029 | 18.63618 | 34359 ft | 446 kts | 321° |
| 2026-05-07 18:42 | 47.15675 | 18.61222 | 33779 ft | 449 kts | 321° |
| 2026-05-07 18:42 | 47.18357 | 18.58789 | 33123 ft | 454 kts | 321° |
| 2026-05-07 18:42 | 47.21066 | 18.56329 | 32486 ft | 460 kts | 322° |
| 2026-05-07 18:43 | 47.23801 | 18.53845 | 31852 ft | 465 kts | 322° |
| 2026-05-07 18:43 | 47.26568 | 18.51331 | 31232 ft | 469 kts | 322° |
| 2026-05-07 18:43 | 47.29358 | 18.48794 | 30620 ft | 473 kts | 322° |
| 2026-05-07 18:43 | 47.32165 | 18.46240 | 29920 ft | 475 kts | 322° |
| 2026-05-07 18:44 | 47.34975 | 18.43680 | 29066 ft | 473 kts | 322° |
| 2026-05-07 18:44 | 47.37760 | 18.41143 | 28238 ft | 467 kts | 322° |
| 2026-05-07 18:44 | 47.39576 | 18.39486 | 27724 ft | 462 kts | 323° |
| 2026-05-07 18:44 | 47.42290 | 18.37006 | 26956 ft | 454 kts | 323° |
| 2026-05-07 18:45 | 47.44947 | 18.34573 | 26225 ft | 444 kts | 323° |
| 2026-05-07 18:45 | 47.47545 | 18.32189 | 25528 ft | 435 kts | 323° |
| 2026-05-07 18:45 | 47.50933 | 18.29072 | 24657 ft | 431 kts | 323° |
| 2026-05-07 18:45 | 47.52651 | 18.27488 | 24223 ft | 429 kts | 323° |
| 2026-05-07 18:46 | 47.55168 | 18.25167 | 23594 ft | 423 kts | 323° |
| 2026-05-07 18:46 | 47.57648 | 18.22880 | 22859 ft | 417 kts | 323° |
| 2026-05-07 18:46 | 47.60102 | 18.20615 | 22169 ft | 415 kts | 323° |
| 2026-05-07 18:46 | 47.62517 | 18.18383 | 21470 ft | 412 kts | 323° |
| 2026-05-07 18:47 | 47.64928 | 18.16155 | 20805 ft | 405 kts | 323° |
| 2026-05-07 18:47 | 47.67332 | 18.13932 | 20149 ft | 399 kts | 323° |
| 2026-05-07 18:47 | 47.69649 | 18.11785 | 19539 ft | 397 kts | 323° |
| 2026-05-07 18:47 | 47.71984 | 18.09618 | 18938 ft | 393 kts | 323° |
| 2026-05-07 18:48 | 47.74287 | 18.07481 | 18355 ft | 388 kts | 323° |
| 2026-05-07 18:48 | 47.76602 | 18.05428 | 17708 ft | 389 kts | 327° |
| 2026-05-07 18:48 | 47.78984 | 18.03530 | 17051 ft | 389 kts | 328° |
| 2026-05-07 18:48 | 47.81367 | 18.01638 | 16409 ft | 387 kts | 328° |
| 2026-05-07 18:49 | 47.83716 | 17.99773 | 15772 ft | 377 kts | 328° |
| 2026-05-07 18:49 | 47.86000 | 17.97956 | 15180 ft | 367 kts | 328° |
| 2026-05-07 18:49 | 47.88223 | 17.96183 | 14613 ft | 357 kts | 328° |
| 2026-05-07 18:49 | 47.90388 | 17.94451 | 14075 ft | 348 kts | 328° |
| 2026-05-07 18:50 | 47.92490 | 17.92767 | 13580 ft | 338 kts | 329° |
| 2026-05-07 18:50 | 47.94529 | 17.91132 | 13085 ft | 328 kts | 329° |
| 2026-05-07 18:50 | 47.96486 | 17.89560 | 12598 ft | 319 kts | 329° |
| 2026-05-07 18:50 | 47.98436 | 17.87992 | 12128 ft | 310 kts | 329° |
| 2026-05-07 18:51 | 48.00283 | 17.86506 | 11684 ft | 302 kts | 330° |
| 2026-05-07 18:51 | 48.02108 | 17.85037 | 11287 ft | 295 kts | 330° |
| 2026-05-07 18:51 | 48.03927 | 17.83571 | 10902 ft | 298 kts | 330° |
| 2026-05-07 18:51 | 48.05742 | 17.82075 | 10512 ft | 297 kts | 327° |
| 2026-05-07 18:52 | 48.07467 | 17.80391 | 10130 ft | 295 kts | 325° |
| 2026-05-07 18:52 | 48.09179 | 17.78721 | 9740 ft | 293 kts | 326° |
| 2026-05-07 18:52 | 48.10880 | 17.77067 | 9331 ft | 291 kts | 326° |
| 2026-05-07 18:52 | 48.12569 | 17.75425 | 8919 ft | 288 kts | 326° |
| 2026-05-07 18:53 | 48.14244 | 17.73795 | 8530 ft | 286 kts | 326° |
| 2026-05-07 18:53 | 48.15901 | 17.72179 | 8144 ft | 284 kts | 326° |
| 2026-05-07 18:53 | 48.17547 | 17.70573 | 7755 ft | 279 kts | 326° |
| 2026-05-07 18:53 | 48.19149 | 17.69009 | 7389 ft | 270 kts | 326° |
| 2026-05-07 18:54 | 48.20698 | 17.67497 | 7028 ft | 261 kts | 326° |
| 2026-05-07 18:54 | 48.22193 | 17.66038 | 6696 ft | 252 kts | 326° |
| 2026-05-07 18:54 | 48.23617 | 17.64645 | 6376 ft | 242 kts | 326° |
| 2026-05-07 18:54 | 48.25004 | 17.63289 | 6056 ft | 235 kts | 326° |
| 2026-05-07 18:55 | 48.26363 | 17.61958 | 5734 ft | 231 kts | 326° |
| 2026-05-07 18:55 | 48.27701 | 17.60644 | 5425 ft | 228 kts | 326° |
| 2026-05-07 18:55 | 48.29026 | 17.59343 | 5121 ft | 226 kts | 326° |
| 2026-05-07 18:55 | 48.30336 | 17.58061 | 4820 ft | 223 kts | 326° |
| 2026-05-07 18:56 | 48.31630 | 17.56791 | 4519 ft | 220 kts | 325° |
| 2026-05-07 18:56 | 48.32916 | 17.55525 | 4220 ft | 223 kts | 325° |
| 2026-05-07 18:56 | 48.34217 | 17.54243 | 3920 ft | 223 kts | 325° |
| 2026-05-07 18:56 | 48.35407 | 17.52801 | 3612 ft | 218 kts | 304° |
| 2026-05-07 18:57 | 48.35905 | 17.50719 | 3336 ft | 216 kts | 267° |
| 2026-05-07 18:57 | 48.35496 | 17.48564 | 3056 ft | 216 kts | 239° |
| 2026-05-07 18:57 | 48.34600 | 17.46775 | 2775 ft | 214 kts | 227° |
| 2026-05-07 18:57 | 48.33571 | 17.45219 | 2540 ft | 210 kts | 223° |
| 2026-05-07 18:58 | 48.32544 | 17.43747 | 2485 ft | 197 kts | 224° |
| 2026-05-07 18:58 | 48.31601 | 17.42379 | 2482 ft | 180 kts | 224° |
| 2026-05-07 18:58 | 48.30714 | 17.41091 | 2523 ft | 180 kts | 224° |
| 2026-05-07 18:58 | 48.29821 | 17.39796 | 2485 ft | 176 kts | 225° |
| 2026-05-07 18:59 | 48.28923 | 17.38494 | 2492 ft | 178 kts | 224° |
| 2026-05-07 18:59 | 48.28034 | 17.37206 | 2505 ft | 180 kts | 225° |
| 2026-05-07 18:59 | 48.27139 | 17.35909 | 2496 ft | 178 kts | 224° |
| 2026-05-07 18:59 | 48.26249 | 17.34622 | 2492 ft | 171 kts | 224° |
| 2026-05-07 19:00 | 48.25456 | 17.33475 | 2473 ft | 146 kts | 224° |
| 2026-05-07 19:00 | 48.24761 | 17.32468 | 2290 ft | 132 kts | 225° |
| 2026-05-07 19:00 | 48.24124 | 17.31546 | 2127 ft | 128 kts | 224° |
| 2026-05-07 19:00 | 48.23468 | 17.30598 | 1955 ft | 131 kts | 224° |
| 2026-05-07 19:01 | 48.22825 | 17.29668 | 1787 ft | 127 kts | 224° |
| 2026-05-07 19:01 | 48.22187 | 17.28746 | 1627 ft | 128 kts | 224° |
| 2026-05-07 19:01 | 48.21540 | 17.27810 | 1442 ft | 128 kts | 224° |
| 2026-05-07 19:01 | 48.20907 | 17.26900 | 1277 ft | 129 kts | 224° |
| 2026-05-07 19:02 | 48.20255 | 17.25966 | 1099 ft | 130 kts | 224° |
| 2026-05-07 19:02 | 48.19588 | 17.25013 | 940 ft | 136 kts | 225° |
| 2026-05-07 19:02 | 48.18921 | 17.24027 | 781 ft | 131 kts | 225° |
| 2026-05-07 19:02 | 48.18267 | 17.23121 | 602 ft | 129 kts | 225° |
| 2026-05-07 19:03 | 48.17631 | 17.22189 | 463 ft | 124 kts | 226° |
| 2026-05-07 19:03 | 48.17079 | 17.21373 | 430 ft | 88 kts | 225° |
| 2026-05-07 19:03 | 48.16775 | 17.20944 | 425 ft | 41 kts | 224° |
| 2026-05-07 19:03 | 48.16598 | 17.20689 | 422 ft | 25 kts | 224° |
| 2026-05-07 19:04 | 48.16590 | 17.20551 | 425 ft | 0 kts | 307° |
| 2026-05-07 19:04 | 48.16593 | 17.20545 | 429 ft | 0 kts | 309° |
| 2026-05-07 19:04 | 48.16593 | 17.20544 | 429 ft | 0 kts | 310° |
| 2026-05-07 19:05 | 48.16595 | 17.20541 | 430 ft | 2 kts | 311° |
| 2026-05-07 19:05 | 48.16619 | 17.20502 | 432 ft | 8 kts | 312° |
| 2026-05-07 19:05 | 48.16661 | 17.20437 | 428 ft | 9 kts | 315° |
| 2026-05-07 19:05 | 48.16707 | 17.20366 | 432 ft | 9 kts | 313° |
| 2026-05-07 19:06 | 48.16754 | 17.20296 | 427 ft | 11 kts | 316° |
| 2026-05-07 19:06 | 48.16853 | 17.20150 | 432 ft | 9 kts | 317° |
| 2026-05-07 19:06 | 48.16880 | 17.20164 | 432 ft | 6 kts | 34° |
| 2026-05-07 19:07 | 48.16914 | 17.20207 | 430 ft | 6 kts | 44° |
| 2026-05-07 19:07 | 48.16941 | 17.20245 | 426 ft | 6 kts | 44° |
| 2026-05-07 19:07 | 48.16950 | 17.20258 | 431 ft | 3 kts | 43° |
| 2026-05-07 19:07 | 48.16977 | 17.20257 | 431 ft | 7 kts | 328° |
| 2026-05-07 19:08 | 48.16998 | 17.20224 | 431 ft | 3 kts | 311° |
| 2026-05-07 19:08 | 48.17005 | 17.20212 | 428 ft | 0 kts | 311° |